createdAt,value
2018-08-03T00:02:16.361Z,17.10
2018-08-03T00:04:44.009Z,16.20
2018-08-03T00:07:11.609Z,16.43
2018-08-03T00:09:39.157Z,15.93
2018-08-03T00:12:06.847Z,17.37
2018-08-03T00:14:34.449Z,16.30
2018-08-03T00:17:01.937Z,17.63
2018-08-03T00:19:29.563Z,15.90
2018-08-03T00:21:57.227Z,16.03
2018-08-03T00:24:24.804Z,15.03
2018-08-03T00:26:52.408Z,17.97
2018-08-03T00:29:19.962Z,19.73
2018-08-03T00:31:47.555Z,19.00
2018-08-03T00:34:15.092Z,18.83
2018-08-03T00:36:42.876Z,17.97
2018-08-03T00:39:11.034Z,17.57
2018-08-03T00:41:38.635Z,18.20
2018-08-03T00:44:06.350Z,17.67
2018-08-03T00:46:33.947Z,16.60
2018-08-03T00:49:01.750Z,16.90
2018-08-03T00:51:29.356Z,17.47
2018-08-03T00:53:57.108Z,17.40
2018-08-03T00:56:24.677Z,18.30
2018-08-03T00:58:52.227Z,17.13
2018-08-03T01:01:20.004Z,15.83
2018-08-03T01:03:47.595Z,16.80
2018-08-03T01:06:15.163Z,16.47
2018-08-03T01:08:42.773Z,17.27
2018-08-03T01:11:10.444Z,16.80
2018-08-03T01:13:38.007Z,16.50
2018-08-03T01:16:05.625Z,17.40
2018-08-03T01:18:33.184Z,15.97
2018-08-03T01:21:00.794Z,16.80
2018-08-03T01:23:28.658Z,16.20
2018-08-03T01:25:56.229Z,14.50
2018-08-03T01:28:23.789Z,15.60
2018-08-03T01:30:51.379Z,15.00
2018-08-03T01:33:18.961Z,15.87
2018-08-03T01:35:46.477Z,17.13
2018-08-03T01:38:14.100Z,17.20
2018-08-03T01:40:41.682Z,16.60
2018-08-03T01:43:09.232Z,17.50
2018-08-03T01:45:36.812Z,17.10
2018-08-03T01:48:04.385Z,18.30
2018-08-03T01:50:31.935Z,18.43
2018-08-03T01:52:59.499Z,18.10
2018-08-03T01:55:28.664Z,16.87
2018-08-03T01:57:56.243Z,17.90
2018-08-03T02:00:23.835Z,17.00
2018-08-03T02:02:51.397Z,17.60
2018-08-03T02:05:19.006Z,15.53
2018-08-03T02:07:46.595Z,16.37
2018-08-03T02:10:14.268Z,17.47
2018-08-03T02:12:41.840Z,17.27
2018-08-03T02:15:09.465Z,17.20
2018-08-03T02:17:37.049Z,16.43
2018-08-03T02:20:05.413Z,15.33
2018-08-03T02:22:32.941Z,15.90
2018-08-03T02:25:00.500Z,18.23
2018-08-03T02:27:28.215Z,15.23
2018-08-03T02:29:55.860Z,15.93
2018-08-03T02:32:23.464Z,17.30
2018-08-03T02:34:51.025Z,15.53
2018-08-03T02:37:18.656Z,14.60
2018-08-03T02:39:46.232Z,15.30
2018-08-03T02:42:13.879Z,15.10
2018-08-03T02:44:42.875Z,13.37
2018-08-03T02:47:10.469Z,15.20
2018-08-03T02:49:38.028Z,17.40
2018-08-03T02:52:05.740Z,15.53
2018-08-03T02:54:33.279Z,15.60
2018-08-03T02:57:00.843Z,16.73
2018-08-03T02:59:28.389Z,16.03
2018-08-03T03:01:55.951Z,16.60
2018-08-03T03:04:23.582Z,16.20
2018-08-03T03:06:51.249Z,15.53
2018-08-03T03:09:18.911Z,16.20
2018-08-03T03:11:46.506Z,17.47
2018-08-03T03:14:14.070Z,16.70
2018-08-03T03:16:41.722Z,16.23
2018-08-03T03:19:09.327Z,15.93
2018-08-03T03:21:36.922Z,16.00
2018-08-03T03:24:04.570Z,16.97
2018-08-03T03:26:32.164Z,14.73
2018-08-03T03:28:59.755Z,15.57
2018-08-03T03:31:27.339Z,14.83
2018-08-03T03:33:54.939Z,14.17
2018-08-03T03:36:22.484Z,14.67
2018-08-03T03:38:50.110Z,15.13
2018-08-03T03:41:17.664Z,14.83
2018-08-03T03:43:45.235Z,15.90
2018-08-03T03:46:12.849Z,14.80
2018-08-03T03:48:40.415Z,15.47
2018-08-03T03:51:08.896Z,14.20
2018-08-03T03:53:36.410Z,14.80
2018-08-03T03:56:03.981Z,13.30
2018-08-03T03:58:31.606Z,14.77
2018-08-03T04:00:59.227Z,14.23
2018-08-03T04:03:27.623Z,14.23
2018-08-03T04:05:55.385Z,13.10
2018-08-03T04:08:22.989Z,15.43
2018-08-03T04:10:50.579Z,14.93
2018-08-03T04:13:18.105Z,16.13
2018-08-03T04:15:45.683Z,18.37
2018-08-03T04:18:16.893Z,18.13
2018-08-03T04:20:44.473Z,15.83
2018-08-03T04:23:12.059Z,13.53
2018-08-03T04:25:39.657Z,14.30
2018-08-03T04:28:07.223Z,15.50
2018-08-03T04:30:34.779Z,14.60
2018-08-03T04:33:02.413Z,14.87
2018-08-03T04:35:30.043Z,14.87
2018-08-03T04:37:57.618Z,14.93
2018-08-03T04:40:25.228Z,16.20
2018-08-03T04:42:52.774Z,15.27
2018-08-03T04:45:20.366Z,16.13
2018-08-03T04:47:47.975Z,16.47
2018-08-03T04:50:15.556Z,16.30
2018-08-03T04:52:43.888Z,16.53
2018-08-03T04:55:11.499Z,17.70
2018-08-03T04:57:39.078Z,18.30
2018-08-03T05:00:06.668Z,18.10
2018-08-03T05:02:34.235Z,19.00
2018-08-03T05:05:01.851Z,16.80
2018-08-03T05:07:29.433Z,16.40
2018-08-03T05:09:57.013Z,18.57
2018-08-03T05:12:24.618Z,17.07
2018-08-03T05:14:52.220Z,19.13
2018-08-03T05:17:19.805Z,17.80
2018-08-03T05:19:47.382Z,18.37
2018-08-03T05:22:15.017Z,19.57
2018-08-03T05:24:42.638Z,20.20
2018-08-03T05:27:10.194Z,19.60
2018-08-03T05:29:37.795Z,20.53
2018-08-03T05:32:05.414Z,21.77
2018-08-03T05:34:32.962Z,19.47
2018-08-03T05:37:00.575Z,19.10
2018-08-03T05:39:28.173Z,18.60
2018-08-03T05:41:55.765Z,20.10
2018-08-03T05:44:23.380Z,19.73
2018-08-03T05:46:50.999Z,21.10
2018-08-03T05:49:18.549Z,23.20
2018-08-03T05:51:46.119Z,19.50
2018-08-03T05:54:13.777Z,21.63
2018-08-03T05:56:41.343Z,23.13
2018-08-03T05:59:08.972Z,23.80
2018-08-03T06:01:36.620Z,21.37
2018-08-03T06:04:04.302Z,21.17
2018-08-03T06:06:31.864Z,21.90
2018-08-03T06:08:59.473Z,21.07
2018-08-03T06:11:27.067Z,22.40
2018-08-03T06:13:55.309Z,22.67
2018-08-03T06:16:22.847Z,23.20
2018-08-03T06:18:50.431Z,21.93
2018-08-03T06:21:18.076Z,20.57
2018-08-03T06:23:45.754Z,22.60
2018-08-03T06:26:13.344Z,23.30
2018-08-03T06:28:40.914Z,21.90
2018-08-03T06:31:08.689Z,21.77
2018-08-03T06:33:36.288Z,22.50
2018-08-03T06:36:03.976Z,23.40
2018-08-03T06:38:31.665Z,22.80
2018-08-03T06:40:59.289Z,22.73
2018-08-03T06:43:26.953Z,22.40
2018-08-03T06:45:54.652Z,21.63
2018-08-03T06:48:22.853Z,21.60
2018-08-03T06:50:50.459Z,20.93
2018-08-03T06:53:18.112Z,20.87
2018-08-03T06:55:45.732Z,21.00
2018-08-03T06:58:13.346Z,22.60
2018-08-03T07:00:40.980Z,18.97
2018-08-03T07:03:08.606Z,20.37
2018-08-03T07:05:36.203Z,20.40
2018-08-03T07:08:03.889Z,19.57
2018-08-03T07:10:31.506Z,19.30
2018-08-03T07:12:59.063Z,19.77
2018-08-03T07:15:27.326Z,20.20
2018-08-03T07:17:54.911Z,20.17
2018-08-03T07:20:22.649Z,20.90
2018-08-03T07:22:50.131Z,20.87
2018-08-03T07:25:17.697Z,20.37
2018-08-03T07:27:45.335Z,19.17
2018-08-03T07:30:12.931Z,19.80
2018-08-03T07:32:40.567Z,20.63
2018-08-03T07:35:08.178Z,21.33
2018-08-03T07:37:35.837Z,19.40
2018-08-03T07:40:03.587Z,19.80
2018-08-03T07:42:31.198Z,21.90
2018-08-03T07:44:59.721Z,19.87
2018-08-03T07:47:27.261Z,18.83
2018-08-03T07:49:54.924Z,21.20
2018-08-03T07:52:22.617Z,19.50
2018-08-03T07:54:50.137Z,20.40
2018-08-03T07:57:17.714Z,19.37
2018-08-03T07:59:45.301Z,19.83
2018-08-03T08:02:12.946Z,21.37
2018-08-03T08:04:40.483Z,20.57
2018-08-03T08:07:08.168Z,20.80
2018-08-03T08:09:35.723Z,19.10
2018-08-03T08:12:03.651Z,21.27
2018-08-03T08:14:31.232Z,23.10
2018-08-03T08:16:58.895Z,22.60
2018-08-03T08:19:26.454Z,20.57
2018-08-03T08:21:54.140Z,20.80
2018-08-03T08:24:21.735Z,21.27
2018-08-03T08:26:49.361Z,21.20
2018-08-03T08:29:16.958Z,20.80
2018-08-03T08:31:44.564Z,20.37
2018-08-03T08:34:12.173Z,21.63
2018-08-03T08:36:39.763Z,22.40
2018-08-03T08:39:09.894Z,23.33
2018-08-03T08:41:37.498Z,21.20
2018-08-03T08:44:05.221Z,22.37
2018-08-03T08:46:32.888Z,21.87
2018-08-03T08:49:00.447Z,21.33
2018-08-03T08:51:28.130Z,20.33
2018-08-03T08:53:55.720Z,21.13
2018-08-03T08:56:23.184Z,20.30
2018-08-03T08:58:50.810Z,20.40
2018-08-03T09:01:18.404Z,21.23
2018-08-03T09:03:45.989Z,22.63
2018-08-03T09:06:13.716Z,21.90
2018-08-03T09:08:41.487Z,21.60
2018-08-03T09:11:10.043Z,21.20
2018-08-03T09:13:37.645Z,19.43
2018-08-03T09:16:05.408Z,20.00
2018-08-03T09:18:32.995Z,19.57
2018-08-03T09:21:01.377Z,21.53
2018-08-03T09:23:28.963Z,20.77
2018-08-03T09:25:56.691Z,20.60
2018-08-03T09:28:24.277Z,19.20
2018-08-03T09:30:52.445Z,21.30
2018-08-03T09:33:20.005Z,19.97
2018-08-03T09:35:47.571Z,20.53
2018-08-03T09:38:15.117Z,20.37
2018-08-03T09:40:42.686Z,21.47
2018-08-03T09:43:11.086Z,21.00
2018-08-03T09:45:38.650Z,19.10
2018-08-03T09:48:06.357Z,19.83
2018-08-03T09:50:34.068Z,20.60
2018-08-03T09:53:01.683Z,21.10
2018-08-03T09:55:29.279Z,20.90
2018-08-03T09:57:56.857Z,19.20
2018-08-03T10:00:31.105Z,19.77
2018-08-03T10:02:58.646Z,21.00
2018-08-03T10:05:26.198Z,19.57
2018-08-03T10:07:53.804Z,19.50
2018-08-03T10:10:21.449Z,20.17
2018-08-03T10:12:49.158Z,21.80
2018-08-03T10:15:16.796Z,18.83
2018-08-03T10:17:44.329Z,19.87
2018-08-03T10:20:11.915Z,19.57
2018-08-03T10:22:39.529Z,19.17
2018-08-03T10:25:07.017Z,19.90
2018-08-03T10:27:34.589Z,18.10
2018-08-03T10:30:02.208Z,18.93
2018-08-03T10:32:29.829Z,18.20
2018-08-03T10:34:58.126Z,18.43
2018-08-03T10:37:25.861Z,18.27
2018-08-03T10:39:53.625Z,18.97
2018-08-03T10:42:21.217Z,17.17
2018-08-03T10:44:48.794Z,18.37
2018-08-03T10:47:16.401Z,16.60
2018-08-03T10:49:43.961Z,16.70
2018-08-03T10:52:11.543Z,16.13
2018-08-03T10:54:39.094Z,18.00
2018-08-03T10:57:06.745Z,18.60
2018-08-03T10:59:35.056Z,17.23
2018-08-03T11:02:02.653Z,16.67
2018-08-03T11:04:31.622Z,15.97
2018-08-03T11:06:59.228Z,16.87
2018-08-03T11:09:26.798Z,16.30
2018-08-03T11:11:55.538Z,16.60
2018-08-03T11:14:23.092Z,16.30
2018-08-03T11:16:50.672Z,16.37
2018-08-03T11:19:18.245Z,15.27
2018-08-03T11:21:45.843Z,14.33
2018-08-03T11:24:13.502Z,15.20
2018-08-03T11:26:41.795Z,16.43
2018-08-03T11:29:09.294Z,15.60
2018-08-03T11:31:36.890Z,15.13
2018-08-03T11:34:04.472Z,15.57
2018-08-03T11:36:32.041Z,14.93
2018-08-03T11:38:59.606Z,14.43
2018-08-03T11:41:27.156Z,13.77
2018-08-03T11:43:54.696Z,13.57
2018-08-03T11:46:22.344Z,14.03
2018-08-03T11:48:50.590Z,14.97
2018-08-03T11:51:18.327Z,13.60
2018-08-03T11:53:46.441Z,13.77
2018-08-03T11:56:13.982Z,13.97
2018-08-03T11:58:42.127Z,14.67
2018-08-03T12:01:09.758Z,13.20
2018-08-03T12:03:37.348Z,12.97
2018-08-03T12:06:05.003Z,12.93
2018-08-03T12:08:32.568Z,12.50
2018-08-03T12:11:00.158Z,12.80
2018-08-03T12:13:27.783Z,12.50
2018-08-03T12:15:55.450Z,11.90
2018-08-03T12:18:23.074Z,13.10
2018-08-03T12:20:50.635Z,12.20
2018-08-03T12:23:18.265Z,13.13
2018-08-03T12:25:45.844Z,12.47
2018-08-03T12:28:13.421Z,13.20
2018-08-03T12:30:41.685Z,12.73
2018-08-03T12:33:09.440Z,12.00
2018-08-03T12:35:37.047Z,12.57
2018-08-03T12:38:04.673Z,12.97
2018-08-03T12:40:32.272Z,11.97
2018-08-03T12:42:59.867Z,11.83
2018-08-03T12:45:33.838Z,11.97
2018-08-03T12:47:55.113Z,12.20
2018-08-03T12:50:22.843Z,11.90
2018-08-03T12:52:50.471Z,12.43
2018-08-03T12:55:18.180Z,12.80
2018-08-03T12:57:45.872Z,13.80
2018-08-03T13:00:13.591Z,12.63
2018-08-03T13:02:41.234Z,13.23
2018-08-03T13:05:08.822Z,13.13
2018-08-03T13:07:36.644Z,12.90
2018-08-03T13:10:04.231Z,11.33
2018-08-03T13:12:31.856Z,11.73
2018-08-03T13:14:59.567Z,12.33
2018-08-03T13:17:27.115Z,13.20
2018-08-03T13:19:54.751Z,12.20
2018-08-03T13:22:23.295Z,12.50
2018-08-03T13:24:51.465Z,13.20
2018-08-03T13:27:19.824Z,13.77
2018-08-03T13:29:47.379Z,13.00
2018-08-03T13:32:14.980Z,13.73
2018-08-03T13:34:42.619Z,12.00
2018-08-03T13:37:10.249Z,13.17
2018-08-03T13:39:37.855Z,12.70
2018-08-03T13:42:05.652Z,12.37
2018-08-03T13:44:33.190Z,12.33
2018-08-03T13:47:00.813Z,10.80
2018-08-03T13:49:28.394Z,11.70
2018-08-03T13:51:56.023Z,12.50
2018-08-03T13:54:24.587Z,11.40
2018-08-03T13:56:52.246Z,12.10
2018-08-03T13:59:19.847Z,13.37
2018-08-03T14:01:58.870Z,11.37
2018-08-03T14:04:26.479Z,13.23
2018-08-03T14:06:54.210Z,13.40
2018-08-03T14:09:21.836Z,12.30
2018-08-03T14:11:49.483Z,11.93
2018-08-03T14:14:17.131Z,10.83
2018-08-03T14:16:44.755Z,11.60
2018-08-03T14:19:13.119Z,12.40
2018-08-03T14:21:40.952Z,11.23
2018-08-03T14:24:08.637Z,12.37
2018-08-03T14:26:36.291Z,12.10
2018-08-03T14:29:03.962Z,11.90
2018-08-03T14:31:31.743Z,15.60
2018-08-03T14:33:59.278Z,13.77
2018-08-03T14:36:26.888Z,12.10
2018-08-03T14:38:55.149Z,12.60
2018-08-03T14:41:23.768Z,13.20
2018-08-03T14:43:51.988Z,13.17
2018-08-03T14:46:19.608Z,12.40
2018-08-03T14:48:47.095Z,13.33
2018-08-03T14:51:14.720Z,13.17
2018-08-03T14:53:42.314Z,13.00
2018-08-03T14:56:09.927Z,13.20
2018-08-03T14:58:37.547Z,13.83
2018-08-03T15:01:05.252Z,13.87
2018-08-03T15:03:32.826Z,13.47
2018-08-03T15:06:00.448Z,13.70
2018-08-03T15:08:28.040Z,12.63
2018-08-03T15:10:55.686Z,12.53
2018-08-03T15:13:23.903Z,12.93
2018-08-03T15:15:51.505Z,12.90
2018-08-03T15:18:19.131Z,13.97
2018-08-03T15:20:47.571Z,13.20
2018-08-03T15:23:15.198Z,12.87
2018-08-03T15:25:43.478Z,12.90
2018-08-03T15:28:11.051Z,12.93
2018-08-03T15:30:38.643Z,13.93
2018-08-03T15:33:06.510Z,13.47
2018-08-03T15:35:34.087Z,13.67
2018-08-03T15:38:01.704Z,13.33
2018-08-03T15:40:29.325Z,13.23
2018-08-03T15:42:56.902Z,12.83
2018-08-03T15:45:24.527Z,12.33
2018-08-03T15:47:52.196Z,12.53
2018-08-03T15:50:20.675Z,13.17
2018-08-03T15:52:48.376Z,13.27
2018-08-03T15:55:15.930Z,13.40
2018-08-03T15:57:43.532Z,13.13
2018-08-03T16:00:11.135Z,13.27
2018-08-03T16:02:39.537Z,14.23
2018-08-03T16:05:07.893Z,13.70
2018-08-03T16:07:35.503Z,13.50
2018-08-03T16:10:04.648Z,13.23
2018-08-03T16:12:32.270Z,13.30
2018-08-03T16:14:59.825Z,12.70
2018-08-03T16:17:27.429Z,13.27
2018-08-03T16:19:55.049Z,13.80
2018-08-03T16:22:22.693Z,12.77
2018-08-03T16:24:50.333Z,13.77
2018-08-03T16:27:18.004Z,14.07
2018-08-03T16:29:45.632Z,13.07
2018-08-03T16:32:13.344Z,13.73
2018-08-03T16:34:40.954Z,14.10
2018-08-03T16:37:08.585Z,12.83
2018-08-03T16:39:36.207Z,13.40
2018-08-03T16:42:03.826Z,13.20
2018-08-03T16:44:31.455Z,12.00
2018-08-03T16:46:59.555Z,12.70
2018-08-03T16:49:27.185Z,13.70
2018-08-03T16:51:54.773Z,12.67
2018-08-03T16:54:22.406Z,13.13
2018-08-03T16:56:51.005Z,13.70
2018-08-03T16:59:18.623Z,12.30
2018-08-03T17:01:46.275Z,12.73
2018-08-03T17:04:13.880Z,13.10
2018-08-03T17:06:41.491Z,12.23
2018-08-03T17:09:09.756Z,12.20
2018-08-03T17:11:37.383Z,14.07
2018-08-03T17:14:05.147Z,13.77
2018-08-03T17:16:32.812Z,13.30
2018-08-03T17:19:00.382Z,12.90
2018-08-03T17:21:27.977Z,12.63
2018-08-03T17:23:55.590Z,13.50
2018-08-03T17:26:23.146Z,13.50
2018-08-03T17:28:51.480Z,12.73
2018-08-03T17:31:19.128Z,13.07
2018-08-03T17:33:48.577Z,12.40
2018-08-03T17:36:16.188Z,12.37
2018-08-03T17:38:43.797Z,12.87
2018-08-03T17:41:11.444Z,13.10
2018-08-03T17:43:39.031Z,12.90
2018-08-03T17:46:06.706Z,12.13
2018-08-03T17:48:34.446Z,11.50
2018-08-03T17:51:02.103Z,13.10
2018-08-03T17:53:29.743Z,13.27
2018-08-03T17:55:57.504Z,11.57
2018-08-03T17:58:25.141Z,11.60
2018-08-03T18:00:52.756Z,11.17
2018-08-03T18:03:20.575Z,12.77
2018-08-03T18:05:49.192Z,11.87
2018-08-03T18:08:16.872Z,12.13
2018-08-03T18:10:44.493Z,12.43
2018-08-03T18:13:12.173Z,12.30
2018-08-03T18:15:39.742Z,11.90
2018-08-03T18:18:07.443Z,11.40
2018-08-03T18:20:35.077Z,11.43
2018-08-03T18:23:02.828Z,13.27
2018-08-03T18:25:30.507Z,11.37
2018-08-03T18:27:58.633Z,12.60
2018-08-03T18:30:26.230Z,11.77
2018-08-03T18:32:53.794Z,12.37
2018-08-03T18:35:21.392Z,11.57
2018-08-03T18:37:49.032Z,12.20
2018-08-03T18:40:16.682Z,12.80
2018-08-03T18:42:44.282Z,15.00
2018-08-03T18:45:11.988Z,12.30
2018-08-03T18:47:39.656Z,12.63
2018-08-03T18:50:07.376Z,11.67
2018-08-03T18:52:35.020Z,13.30
2018-08-03T18:55:02.715Z,11.83
2018-08-03T18:57:30.384Z,12.60
2018-08-03T18:59:58.965Z,13.87
2018-08-03T19:02:26.658Z,12.53
2018-08-03T19:04:54.301Z,14.30
2018-08-03T19:07:21.969Z,14.77
2018-08-03T19:09:49.571Z,14.73
2018-08-03T19:12:17.205Z,15.60
2018-08-03T19:14:44.857Z,15.00
2018-08-03T19:17:12.521Z,16.87
2018-08-03T19:19:40.148Z,15.60
2018-08-03T19:22:07.794Z,13.77
2018-08-03T19:24:35.448Z,13.23
2018-08-03T19:27:03.165Z,14.90
2018-08-03T19:29:30.818Z,14.77
2018-08-03T19:31:58.650Z,15.50
2018-08-03T19:34:27.139Z,15.50
2018-08-03T19:36:54.783Z,14.20
2018-08-03T19:39:22.430Z,14.57
2018-08-03T19:41:50.090Z,16.17
2018-08-03T19:44:17.716Z,15.67
2018-08-03T19:46:46.144Z,14.73
2018-08-03T19:49:13.848Z,14.73
2018-08-03T19:51:42.070Z,14.50
2018-08-03T19:54:09.683Z,14.50
2018-08-03T19:56:37.352Z,15.90
2018-08-03T19:59:05.136Z,16.63
2018-08-03T20:01:32.657Z,16.97
2018-08-03T20:04:00.344Z,16.43
2018-08-03T20:06:27.976Z,17.20
2018-08-03T20:08:56.139Z,18.03
2018-08-03T20:11:23.832Z,17.70
2018-08-03T20:13:51.542Z,19.20
2018-08-03T20:16:19.362Z,18.20
2018-08-03T20:18:46.990Z,18.10
2018-08-03T20:21:14.645Z,18.43
2018-08-03T20:23:42.368Z,19.00
2018-08-03T20:26:10.059Z,17.87
2018-08-03T20:28:37.628Z,18.40
2018-08-03T20:31:05.395Z,16.83
2018-08-03T20:33:33.053Z,16.60
2018-08-03T20:36:00.698Z,17.00
2018-08-03T20:38:28.287Z,17.37
2018-08-03T20:40:55.889Z,17.03
2018-08-03T20:43:23.492Z,16.10
2018-08-03T20:45:51.184Z,16.30
2018-08-03T20:48:19.453Z,15.83
2018-08-03T20:50:47.113Z,15.50
2018-08-03T20:53:16.432Z,17.27
2018-08-03T20:55:44.084Z,17.20
2018-08-03T20:58:11.723Z,17.43
2018-08-03T21:00:39.378Z,16.77
2018-08-03T21:03:06.997Z,16.03
2018-08-03T21:05:34.626Z,17.13
2018-08-03T21:08:02.282Z,16.03
2018-08-03T21:10:29.903Z,16.70
2018-08-03T21:12:57.522Z,16.83
2018-08-03T21:15:25.293Z,17.83
2018-08-03T21:17:52.905Z,16.57
2018-08-03T21:20:20.501Z,17.33
2018-08-03T21:22:48.255Z,18.03
2018-08-03T21:25:15.917Z,14.53
2018-08-03T21:27:43.652Z,16.07
2018-08-03T21:30:11.537Z,17.57
2018-08-03T21:32:39.132Z,16.50
2018-08-03T21:35:07.554Z,15.70
2018-08-03T21:37:35.583Z,16.47
2018-08-03T21:40:03.272Z,15.50
2018-08-03T21:42:30.996Z,16.33
2018-08-03T21:44:58.616Z,16.23
2018-08-03T21:47:26.294Z,16.00
2018-08-03T21:49:53.990Z,15.87
2018-08-03T21:52:21.652Z,16.70
2018-08-03T21:54:49.347Z,15.00
2018-08-03T21:57:17.450Z,15.80
2018-08-03T21:59:45.038Z,16.40
2018-08-03T22:02:12.660Z,16.67
2018-08-03T22:04:40.262Z,16.37
2018-08-03T22:07:07.886Z,16.13
2018-08-03T22:09:36.519Z,16.90
2018-08-03T22:12:05.210Z,16.43
2018-08-03T22:14:32.726Z,17.00
2018-08-03T22:17:00.280Z,17.23
2018-08-03T22:19:27.916Z,17.50
2018-08-03T22:21:55.527Z,18.13
2018-08-03T22:24:23.241Z,17.60
2018-08-03T22:26:50.829Z,17.70
2018-08-03T22:29:18.413Z,18.67
2018-08-03T22:31:46.006Z,19.27
2018-08-03T22:34:13.577Z,18.77
2018-08-03T22:36:41.707Z,16.90
2018-08-03T22:39:09.379Z,18.30
2018-08-03T22:41:36.956Z,18.47
2018-08-03T22:44:04.599Z,19.10
2018-08-03T22:46:32.156Z,19.93
2018-08-03T22:48:59.758Z,19.93
2018-08-03T22:51:27.369Z,20.57
2018-08-03T22:53:55.102Z,19.33
2018-08-03T22:56:22.609Z,19.13
2018-08-03T22:58:50.223Z,19.67
2018-08-03T23:01:17.817Z,19.57
2018-08-03T23:03:45.428Z,19.87
2018-08-03T23:06:13.074Z,18.17
2018-08-03T23:08:40.678Z,17.90
2018-08-03T23:11:08.285Z,18.60
2018-08-03T23:13:35.909Z,17.53
2018-08-03T23:16:03.656Z,19.20
2018-08-03T23:18:31.240Z,17.80
2018-08-03T23:20:58.800Z,18.60
2018-08-03T23:23:26.380Z,19.20
2018-08-03T23:25:53.998Z,18.10
2018-08-03T23:28:21.579Z,19.33
2018-08-03T23:30:49.185Z,19.17
2018-08-03T23:33:16.769Z,18.30
2018-08-03T23:35:44.377Z,18.50
2018-08-03T23:38:11.977Z,18.00
2018-08-03T23:40:39.604Z,18.50
2018-08-03T23:43:07.081Z,18.57
2018-08-03T23:45:34.677Z,18.40
2018-08-03T23:48:02.228Z,19.43
2018-08-03T23:50:29.814Z,18.20
2018-08-03T23:52:57.440Z,20.10
2018-08-03T23:55:25.011Z,19.70
2018-08-03T23:57:52.650Z,19.37
